Time;durP1;ratioP1;P1;durP2;ratioP2;P2;SDS_P1;SDS_P2;PMS_P1;PMS_P2;Temp;Humidity;BMP_temperature;BMP_pressure;BME280_temperature;BME280_humidity;BME280_pressure;Samples;Min_cycle;Max_cycle;Signal;HPM_P1;HPM_P2
2022/04/23 00:01:47;;;;;;;;;;;9.60;99.90;;;;;;5124320;28;20256;-69
2022/04/23 00:04:14;;;;;;;;;;;9.60;99.90;;;;;;5117761;28;19920;-68
2022/04/23 00:06:40;;;;;;;;;;;9.60;99.90;;;;;;5127211;28;20144;-68
2022/04/23 00:09:07;;;;;;;;;;;9.60;99.90;;;;;;5127137;28;19926;-68
2022/04/23 00:11:35;;;;;;;;;;;9.60;99.90;;;;;;5127018;28;19926;-68
2022/04/23 00:14:02;;;;;;;;;;;9.60;99.90;;;;;;5126934;28;19924;-68
2022/04/23 00:16:28;;;;;;;;;;;9.60;99.90;;;;;;5126683;28;19934;-68
2022/04/23 00:18:55;;;;;;;;;;;9.60;99.90;;;;;;5127168;28;19920;-68
2022/04/23 00:21:21;;;;;;;;;;;9.60;99.90;;;;;;5127246;28;19927;-68
2022/04/23 00:23:48;;;;;;;;;;;9.50;99.90;;;;;;5126920;28;19919;-68
2022/04/23 00:26:15;;;;;;;;;;;9.50;99.90;;;;;;5126557;28;20024;-68
2022/04/23 00:28:43;;;;;;;;;;;9.50;99.90;;;;;;5116885;28;19920;-68
2022/04/23 00:31:10;;;;;;;;;;;9.50;99.90;;;;;;5126689;28;19919;-68
2022/04/23 00:33:37;;;;;;;;;;;9.50;99.90;;;;;;5126536;28;20207;-68
2022/04/23 00:36:04;;;;;;;;;;;9.50;99.90;;;;;;5125757;28;19955;-68
2022/04/23 00:38:33;;;;;;;;;;;9.50;99.90;;;;;;5126667;28;19920;-68
2022/04/23 00:40:59;;;;;;;;;;;9.50;99.90;;;;;;5126643;28;19920;-69
2022/04/23 00:43:27;;;;;;;;;;;9.60;99.90;;;;;;5126644;28;19950;-68
2022/04/23 00:45:55;;;;;;;;;;;9.60;99.90;;;;;;5125752;28;20046;-68
2022/04/23 00:48:24;;;;;;;;;;;9.70;99.90;;;;;;5126638;28;19926;-68
2022/04/23 00:50:52;;;;;;;;;;;9.70;99.90;;;;;;5126105;28;19965;-68
2022/04/23 00:53:19;;;;;;;;;;;9.70;99.90;;;;;;5126459;28;19927;-68
2022/04/23 00:55:46;;;;;;;;;;;9.70;99.90;;;;;;5125712;28;19920;-68
2022/04/23 00:58:14;;;;;;;;;;;9.60;99.90;;;;;;5126548;28;19926;-68
2022/04/23 01:00:42;;;;;;;;;;;9.60;99.90;;;;;;5122639;28;19919;-68
2022/04/23 01:03:11;;;;;;;;;;;9.60;99.90;;;;;;5117771;28;19965;-68
2022/04/23 01:05:39;;;;;;;;;;;9.60;99.90;;;;;;5124437;28;19920;-68
2022/04/23 01:08:06;;;;;;;;;;;9.60;99.90;;;;;;5126182;28;20178;-68
2022/04/23 01:10:33;;;;;;;;;;;9.50;99.90;;;;;;5125925;28;20118;-69
2022/04/23 01:12:59;;;;;;;;;;;9.50;99.90;;;;;;5125631;28;19969;-68
2022/04/23 01:15:26;;;;;;;;;;;9.50;99.90;;;;;;5125862;28;19987;-68
2022/04/23 01:17:53;;;;;;;;;;;9.50;99.90;;;;;;5126006;28;19919;-68
2022/04/23 01:20:22;;;;;;;;;;;9.50;99.90;;;;;;5125841;28;19920;-68
2022/04/23 01:22:49;;;;;;;;;;;9.40;99.90;;;;;;5125582;28;20226;-68
2022/04/23 01:25:16;;;;;;;;;;;9.40;99.90;;;;;;5125767;28;19920;-68
2022/04/23 01:27:45;;;;;;;;;;;9.40;99.90;;;;;;5125853;28;20114;-68
2022/04/23 01:30:12;;;;;;;;;;;9.40;99.90;;;;;;5105254;28;19924;-68
2022/04/23 01:32:38;;;;;;;;;;;9.40;99.90;;;;;;5105095;28;19928;-68
2022/04/23 01:35:06;;;;;;;;;;;9.30;99.90;;;;;;5105100;28;19926;-68
2022/04/23 01:37:34;;;;;;;;;;;9.30;99.90;;;;;;5104952;28;19920;-68
2022/04/23 01:40:00;;;;;;;;;;;9.30;99.90;;;;;;5105262;28;19919;-68
2022/04/23 01:42:27;;;;;;;;;;;9.30;99.90;;;;;;5104865;28;19987;-68
2022/04/23 01:44:53;;;;;;;;;;;9.30;99.90;;;;;;5104971;28;19920;-67
2022/04/23 01:47:20;;;;;;;;;;;9.30;99.90;;;;;;5104630;28;19920;-68
2022/04/23 01:49:47;;;;;;;;;;;9.30;99.90;;;;;;5104671;28;20167;-68
2022/04/23 01:52:13;;;;;;;;;;;9.30;99.90;;;;;;5104719;28;19920;-68
2022/04/23 01:54:41;;;;;;;;;;;9.30;99.90;;;;;;5104761;28;19928;-68
2022/04/23 01:57:08;;;;;;;;;;;9.30;99.90;;;;;;5104641;28;19920;-68
2022/04/23 01:59:35;;;;;;;;;;;9.30;99.90;;;;;;5104675;28;19926;-67
2022/04/23 02:02:01;;;;;;;;;;;9.30;99.90;;;;;;5111782;28;20134;-68
2022/04/23 02:04:28;;;;;;;;;;;9.30;99.90;;;;;;5115142;28;19988;-68
2022/04/23 02:06:54;;;;;;;;;;;9.30;99.90;;;;;;5123733;28;19927;-68
2022/04/23 02:09:21;;;;;;;;;;;9.30;99.90;;;;;;5125097;28;19920;-68
2022/04/23 02:11:49;;;;;;;;;;;9.30;99.90;;;;;;5124865;28;19942;-68
2022/04/23 02:14:15;;;;;;;;;;;9.30;99.90;;;;;;5124896;28;19990;-68
2022/04/23 02:16:42;;;;;;;;;;;9.30;99.90;;;;;;5124517;28;20091;-68
2022/04/23 02:19:09;;;;;;;;;;;9.40;99.90;;;;;;5124592;28;19919;-68
2022/04/23 02:21:35;;;;;;;;;;;9.40;99.90;;;;;;5124868;28;19919;-67
2022/04/23 02:24:04;;;;;;;;;;;9.30;99.90;;;;;;5123991;28;19926;-68
2022/04/23 02:26:30;;;;;;;;;;;9.30;99.90;;;;;;5124490;28;19920;-68
2022/04/23 02:28:58;;;;;;;;;;;9.30;99.90;;;;;;5122835;28;19919;-68
2022/04/23 02:31:25;;;;;;;;;;;9.40;99.90;;;;;;5104018;28;20150;-68
2022/04/23 02:33:52;;;;;;;;;;;9.30;99.90;;;;;;5103823;28;19928;-68
2022/04/23 02:36:18;;;;;;;;;;;9.40;99.90;;;;;;5102910;28;19920;-68
2022/04/23 02:38:45;;;;;;;;;;;9.40;99.90;;;;;;5104013;28;19987;-68
2022/04/23 02:41:12;;;;;;;;;;;9.40;99.90;;;;;;5104168;28;19927;-68
2022/04/23 02:43:39;;;;;;;;;;;9.40;99.90;;;;;;5104223;28;19920;-68
2022/04/23 02:46:08;;;;;;;;;;;9.30;99.90;;;;;;5103982;28;19927;-68
2022/04/23 02:48:35;;;;;;;;;;;9.30;99.90;;;;;;5103767;28;19991;-68
2022/04/23 02:51:02;;;;;;;;;;;9.30;99.90;;;;;;5104043;28;19920;-68
2022/04/23 02:53:29;;;;;;;;;;;9.30;99.90;;;;;;5103761;28;19920;-68
2022/04/23 02:55:56;;;;;;;;;;;9.20;99.90;;;;;;5103542;28;20274;-68
2022/04/23 02:58:25;;;;;;;;;;;9.20;99.90;;;;;;5103667;28;19924;-68
2022/04/23 03:00:52;;;;;;;;;;;9.20;99.90;;;;;;5103412;28;19924;-68
2022/04/23 03:03:21;;;;;;;;;;;9.10;99.90;;;;;;5113147;28;20149;-68
2022/04/23 03:05:47;;;;;;;;;;;9.10;99.90;;;;;;5122483;28;19927;-68
2022/04/23 03:08:14;;;;;;;;;;;9.10;99.90;;;;;;5122991;28;20237;-68
2022/04/23 03:10:41;;;;;;;;;;;9.20;99.90;;;;;;5123925;28;19961;-68
2022/04/23 03:13:08;;;;;;;;;;;9.10;99.90;;;;;;5123846;28;20123;-68
2022/04/23 03:15:35;;;;;;;;;;;9.10;99.90;;;;;;5123398;28;19965;-68
2022/04/23 03:18:06;;;;;;;;;;;9.10;99.90;;;;;;5124015;28;19926;-68
2022/04/23 03:20:34;;;;;;;;;;;9.20;99.90;;;;;;5123820;28;19927;-68
2022/04/23 03:23:00;;;;;;;;;;;9.20;99.90;;;;;;5123838;28;19920;-68
2022/04/23 03:25:27;;;;;;;;;;;9.20;99.90;;;;;;5123657;28;19954;-68
2022/04/23 03:27:55;;;;;;;;;;;9.20;99.90;;;;;;5123206;28;19920;-68
2022/04/23 03:30:22;;;;;;;;;;;9.10;99.90;;;;;;5110131;28;19981;-68
2022/04/23 03:32:49;;;;;;;;;;;9.10;99.90;;;;;;5103273;28;19926;-68
2022/04/23 03:35:15;;;;;;;;;;;9.10;99.90;;;;;;5102223;28;19920;-68
2022/04/23 03:37:43;;;;;;;;;;;9.10;99.90;;;;;;5107288;28;19920;-68
2022/04/23 03:40:10;;;;;;;;;;;9.10;99.90;;;;;;5107237;28;19942;-68
2022/04/23 03:42:37;;;;;;;;;;;9.10;99.90;;;;;;5107284;28;19935;-69
2022/04/23 03:45:04;;;;;;;;;;;9.10;99.90;;;;;;5107357;28;19920;-68
2022/04/23 03:47:31;;;;;;;;;;;9.20;99.90;;;;;;5106991;28;20199;-68
2022/04/23 03:49:58;;;;;;;;;;;9.20;99.90;;;;;;5111374;28;19920;-68
2022/04/23 03:52:24;;;;;;;;;;;9.10;99.90;;;;;;5113609;28;20173;-68
2022/04/23 03:54:52;;;;;;;;;;;9.10;99.90;;;;;;5106878;28;19920;-68
2022/04/23 03:57:19;;;;;;;;;;;9.10;99.90;;;;;;5106819;28;20216;-68
2022/04/23 03:59:45;;;;;;;;;;;9.10;99.90;;;;;;5107080;28;19986;-68
2022/04/23 04:02:12;;;;;;;;;;;9.10;99.90;;;;;;5111754;28;19978;-68
2022/04/23 04:04:39;;;;;;;;;;;9.10;99.90;;;;;;5122622;28;19920;-69
2022/04/23 04:07:05;;;;;;;;;;;9.10;99.90;;;;;;5127052;28;19982;-68
2022/04/23 04:09:32;;;;;;;;;;;9.10;99.90;;;;;;5127403;28;19920;-69
2022/04/23 04:12:03;;;;;;;;;;;9.10;99.90;;;;;;5127433;28;19923;-68
2022/04/23 04:14:30;;;;;;;;;;;9.10;99.90;;;;;;5126942;28;20015;-68
2022/04/23 04:16:57;;;;;;;;;;;9.10;99.90;;;;;;5126969;28;19927;-68
2022/04/23 04:19:25;;;;;;;;;;;9.00;99.90;;;;;;5127032;28;19920;-68
2022/04/23 04:21:51;;;;;;;;;;;9.00;99.90;;;;;;5126967;28;19919;-68
2022/04/23 04:24:18;;;;;;;;;;;8.90;99.90;;;;;;5126871;28;19941;-68
2022/04/23 04:26:45;;;;;;;;;;;9.00;99.90;;;;;;5126657;28;20114;-68
2022/04/23 04:29:13;;;;;;;;;;;9.00;99.90;;;;;;5115328;28;19926;-68
2022/04/23 04:31:50;;;;;;;;;;;9.00;99.90;;;;;;5106421;28;19926;-68
2022/04/23 04:34:17;;;;;;;;;;;9.00;99.90;;;;;;5106084;28;20149;-68
2022/04/23 04:36:44;;;;;;;;;;;9.00;99.90;;;;;;5105871;28;19958;-68
2022/04/23 04:39:11;;;;;;;;;;;9.00;99.90;;;;;;5106467;28;19920;-68
2022/04/23 04:41:37;;;;;;;;;;;8.90;99.90;;;;;;5106057;28;20235;-68
2022/04/23 04:44:05;;;;;;;;;;;8.90;99.90;;;;;;5106205;28;19993;-68
2022/04/23 04:46:32;;;;;;;;;;;8.90;99.90;;;;;;5105096;28;19942;-68
2022/04/23 04:48:59;;;;;;;;;;;8.90;99.90;;;;;;5105174;28;19920;-68
2022/04/23 04:51:26;;;;;;;;;;;8.90;99.90;;;;;;5116710;28;19928;-68
2022/04/23 04:53:53;;;;;;;;;;;8.90;99.90;;;;;;5123659;28;19926;-68
2022/04/23 04:56:19;;;;;;;;;;;8.90;99.90;;;;;;5126217;28;19959;-68
2022/04/23 04:58:46;;;;;;;;;;;9.00;99.90;;;;;;5126339;28;19927;-68
2022/04/23 05:01:13;;;;;;;;;;;8.90;99.90;;;;;;5126737;28;19959;-68
2022/04/23 05:03:41;;;;;;;;;;;9.00;99.90;;;;;;5125564;28;19926;-68
2022/04/23 05:06:08;;;;;;;;;;;8.90;99.90;;;;;;5125092;28;19920;-68
2022/04/23 05:08:35;;;;;;;;;;;8.90;99.90;;;;;;5126589;28;19961;-68
2022/04/23 05:11:01;;;;;;;;;;;8.80;99.90;;;;;;5126236;28;19920;-68
2022/04/23 05:13:28;;;;;;;;;;;8.80;99.90;;;;;;5126637;28;19920;-68
2022/04/23 05:15:54;;;;;;;;;;;8.80;99.90;;;;;;5126162;28;19920;-68
2022/04/23 05:18:21;;;;;;;;;;;8.80;99.90;;;;;;5126070;28;19926;-68
2022/04/23 05:20:49;;;;;;;;;;;8.80;99.90;;;;;;5126200;28;20092;-68
2022/04/23 05:23:16;;;;;;;;;;;8.80;99.90;;;;;;5125844;28;19919;-68
2022/04/23 05:25:42;;;;;;;;;;;8.90;99.90;;;;;;5126116;28;19942;-68
2022/04/23 05:28:09;;;;;;;;;;;8.90;99.90;;;;;;5115434;28;19927;-68
2022/04/23 05:30:37;;;;;;;;;;;8.90;99.90;;;;;;5105234;28;19920;-68
2022/04/23 05:33:03;;;;;;;;;;;8.90;99.90;;;;;;5105747;28;19992;-68
2022/04/23 05:35:30;;;;;;;;;;;8.80;99.90;;;;;;5105299;28;20107;-68
2022/04/23 05:37:58;;;;;;;;;;;8.90;99.90;;;;;;5105615;28;19927;-68
2022/04/23 05:40:24;;;;;;;;;;;8.90;99.90;;;;;;5105556;28;19924;-70
2022/04/23 05:42:55;;;;;;;;;;;8.80;99.90;;;;;;5104906;28;20204;-68
2022/04/23 05:45:22;;;;;;;;;;;8.80;99.90;;;;;;5105219;28;19927;-68
2022/04/23 05:47:49;;;;;;;;;;;8.80;99.90;;;;;;5105348;28;19943;-68
2022/04/23 05:50:15;;;;;;;;;;;8.80;99.90;;;;;;5111489;28;19920;-68
2022/04/23 05:52:42;;;;;;;;;;;8.80;99.90;;;;;;5117383;28;20204;-68
2022/04/23 05:55:10;;;;;;;;;;;8.90;99.90;;;;;;5104630;28;20119;-68
2022/04/23 05:57:37;;;;;;;;;;;8.90;99.90;;;;;;5104556;28;19920;-68
2022/04/23 06:00:04;;;;;;;;;;;8.90;99.90;;;;;;5104466;28;19927;-67
2022/04/23 06:02:31;;;;;;;;;;;8.90;99.90;;;;;;5115649;28;20153;-68
2022/04/23 06:04:58;;;;;;;;;;;9.00;99.90;;;;;;5123976;28;19920;-67
2022/04/23 06:07:25;;;;;;;;;;;9.00;99.90;;;;;;5124893;28;19920;-67
2022/04/23 06:09:52;;;;;;;;;;;9.00;99.90;;;;;;5125080;28;19926;-67
2022/04/23 06:12:19;;;;;;;;;;;9.10;99.90;;;;;;5124815;28;19924;-67
2022/04/23 06:14:46;;;;;;;;;;;9.10;99.90;;;;;;5124764;28;19934;-67
2022/04/23 06:17:13;;;;;;;;;;;9.10;99.90;;;;;;5123640;28;19987;-67
2022/04/23 06:19:40;;;;;;;;;;;9.10;99.90;;;;;;5124765;28;19920;-67
2022/04/23 06:22:07;;;;;;;;;;;9.20;99.90;;;;;;5124999;28;20134;-67
2022/04/23 06:24:33;;;;;;;;;;;9.20;99.90;;;;;;5124616;28;19920;-67
2022/04/23 06:27:00;;;;;;;;;;;9.30;99.90;;;;;;5123752;28;19920;-68
2022/04/23 06:29:28;;;;;;;;;;;9.30;99.90;;;;;;5112751;28;19928;-68
2022/04/23 06:31:54;;;;;;;;;;;9.40;99.90;;;;;;5122097;28;20211;-68
2022/04/23 06:34:21;;;;;;;;;;;9.40;99.90;;;;;;5124480;28;19919;-68
2022/04/23 06:36:47;;;;;;;;;;;9.50;99.90;;;;;;5124608;28;19925;-68
2022/04/23 06:39:14;;;;;;;;;;;9.50;99.90;;;;;;5124272;28;19926;-68
2022/04/23 06:41:41;;;;;;;;;;;9.50;99.90;;;;;;5124222;28;20114;-68
2022/04/23 06:44:07;;;;;;;;;;;9.50;99.90;;;;;;5124147;28;19926;-68
2022/04/23 06:46:35;;;;;;;;;;;9.60;99.90;;;;;;5123913;28;19920;-67
2022/04/23 06:49:05;;;;;;;;;;;9.70;99.90;;;;;;5124010;28;19919;-67
2022/04/23 06:51:31;;;;;;;;;;;9.70;99.90;;;;;;5115001;28;19927;-68
2022/04/23 06:53:58;;;;;;;;;;;9.80;99.90;;;;;;5121923;28;19920;-68
2022/04/23 06:56:26;;;;;;;;;;;9.90;99.90;;;;;;5123814;28;20211;-68
2022/04/23 06:58:52;;;;;;;;;;;9.90;99.90;;;;;;5124250;28;19986;-67
2022/04/23 07:01:19;;;;;;;;;;;9.90;99.90;;;;;;5122778;28;19920;-67
2022/04/23 07:03:47;;;;;;;;;;;9.90;99.90;;;;;;5115636;28;20115;-69
2022/04/23 07:06:14;;;;;;;;;;;10.00;99.90;;;;;;5122972;28;19919;-68
2022/04/23 07:08:41;;;;;;;;;;;10.00;99.90;;;;;;5123888;28;19923;-67
2022/04/23 07:11:07;;;;;;;;;;;10.10;99.90;;;;;;5123680;28;19978;-68
2022/04/23 07:13:35;;;;;;;;;;;10.20;99.90;;;;;;5124148;28;20133;-68
2022/04/23 07:16:03;;;;;;;;;;;10.30;99.90;;;;;;5124038;28;19983;-68
2022/04/23 07:18:31;;;;;;;;;;;10.30;99.90;;;;;;5124513;28;19983;-68
2022/04/23 07:20:59;;;;;;;;;;;10.40;99.90;;;;;;5124302;28;19920;-68
2022/04/23 07:26:10;;;;;;;;;;;10.50;99.90;;;;;;5122694;28;19952;-68
2022/04/23 07:28:37;;;;;;;;;;;10.50;99.90;;;;;;5121205;28;19958;-68
2022/04/23 07:31:05;;;;;;;;;;;10.50;99.90;;;;;;5103165;28;19920;-68
2022/04/23 07:39:01;;;;;;;;;;;10.40;99.90;;;;;;5121138;28;19957;-68
2022/04/23 07:41:28;;;;;;;;;;;10.50;99.90;;;;;;5114896;28;19920;-67
2022/04/23 07:43:54;;;;;;;;;;;10.60;99.90;;;;;;5101729;28;19958;-67
2022/04/23 07:46:21;;;;;;;;;;;10.60;99.90;;;;;;5101666;28;19924;-67
2022/04/23 07:48:48;;;;;;;;;;;10.60;99.90;;;;;;5102342;28;19920;-67
2022/04/23 07:51:14;;;;;;;;;;;10.60;99.90;;;;;;5117949;28;19920;-67
2022/04/23 07:53:42;;;;;;;;;;;10.60;99.90;;;;;;5123841;28;19920;-67
2022/04/23 07:56:09;;;;;;;;;;;10.60;99.90;;;;;;5123111;28;19920;-67
2022/04/23 07:58:35;;;;;;;;;;;10.70;99.90;;;;;;5123351;28;19920;-67
2022/04/23 08:01:02;;;;;;;;;;;10.70;99.90;;;;;;5123307;28;19927;-67
2022/04/23 08:03:29;;;;;;;;;;;10.70;99.90;;;;;;5123510;28;19919;-67
2022/04/23 08:05:56;;;;;;;;;;;10.70;99.90;;;;;;5123258;28;19920;-67
2022/04/23 08:08:24;;;;;;;;;;;10.70;99.90;;;;;;5123423;28;19991;-67
2022/04/23 08:10:52;;;;;;;;;;;10.80;99.90;;;;;;5123103;28;19941;-68
2022/04/23 08:13:19;;;;;;;;;;;10.80;99.90;;;;;;5123459;28;19928;-67
2022/04/23 08:15:46;;;;;;;;;;;10.90;99.90;;;;;;5122850;28;19920;-67
2022/04/23 08:18:13;;;;;;;;;;;11.00;99.90;;;;;;5123276;28;20264;-67
2022/04/23 08:20:41;;;;;;;;;;;11.00;99.90;;;;;;5123407;28;19987;-67
2022/04/23 08:23:07;;;;;;;;;;;11.00;99.90;;;;;;5124635;28;19920;-67
2022/04/23 08:25:34;;;;;;;;;;;10.90;99.90;;;;;;5126813;28;19924;-67
2022/04/23 08:30:42;;;;;;;;;;;10.90;99.90;;;;;;5113593;28;19924;-67
2022/04/23 08:33:09;;;;;;;;;;;10.90;99.90;;;;;;5123188;28;19920;-67
2022/04/23 08:35:37;;;;;;;;;;;10.90;99.90;;;;;;5105876;28;19921;-67
2022/04/23 08:38:04;;;;;;;;;;;10.90;99.90;;;;;;5106352;28;19931;-67
2022/04/23 08:40:35;;;;;;;;;;;11.00;99.90;;;;;;5123055;28;19920;-67
2022/04/23 08:43:03;;;;;;;;;;;11.00;99.90;;;;;;5118209;28;20158;-67
2022/04/23 08:45:30;;;;;;;;;;;11.10;99.90;;;;;;5126364;28;19926;-67
2022/04/23 08:47:58;;;;;;;;;;;11.10;99.90;;;;;;5126543;28;19924;-67
2022/04/23 08:50:26;;;;;;;;;;;11.10;99.90;;;;;;5126508;28;19920;-67
2022/04/23 08:52:54;;;;;;;;;;;11.00;99.90;;;;;;5126491;28;19919;-70
2022/04/23 08:55:20;;;;;;;;;;;11.10;99.90;;;;;;5126348;28;19920;-67
2022/04/23 08:57:47;;;;;;;;;;;11.10;99.90;;;;;;5126273;28;19991;-67
2022/04/23 09:00:16;;;;;;;;;;;11.10;99.90;;;;;;5126252;28;19919;-67
2022/04/23 09:02:43;;;;;;;;;;;11.10;99.90;;;;;;5126212;28;19920;-68
2022/04/23 09:05:10;;;;;;;;;;;11.20;99.90;;;;;;5126028;28;19919;-67
2022/04/23 09:07:36;;;;;;;;;;;11.20;99.90;;;;;;5125842;28;19919;-66
2022/04/23 09:10:04;;;;;;;;;;;11.30;99.90;;;;;;5126243;28;19920;-67
2022/04/23 09:12:31;;;;;;;;;;;11.30;99.90;;;;;;5125970;28;19965;-68
2022/04/23 09:15:05;;;;;;;;;;;11.30;99.90;;;;;;5126119;28;19961;-67
2022/04/23 09:25:47;;;;;;;;;;;11.50;99.90;;;;;;5125639;28;20222;-68
2022/04/23 09:28:15;;;;;;;;;;;11.50;99.90;;;;;;5114438;28;20356;-68
2022/04/23 09:30:41;;;;;;;;;;;11.60;99.90;;;;;;5104978;28;19928;-67
2022/04/23 09:33:10;;;;;;;;;;;11.60;99.90;;;;;;5105084;28;19920;-68
2022/04/23 09:35:37;;;;;;;;;;;11.70;99.90;;;;;;5104495;28;19946;-68
2022/04/23 09:38:17;;;;;;;;;;;11.80;99.90;;;;;;5105139;28;19926;-67
2022/04/23 09:40:49;;;;;;;;;;;11.90;99.90;;;;;;5121377;28;19919;-67
2022/04/23 09:43:16;;;;;;;;;;;12.00;99.90;;;;;;5117611;28;19919;-67
2022/04/23 09:45:43;;;;;;;;;;;12.10;99.90;;;;;;5125218;28;19961;-67
2022/04/23 09:48:18;;;;;;;;;;;12.20;99.90;;;;;;5125591;28;19920;-67
2022/04/23 09:50:45;;;;;;;;;;;12.20;99.90;;;;;;5125380;28;19926;-67
2022/04/23 09:53:12;;;;;;;;;;;12.10;99.90;;;;;;5124999;28;20199;-67
2022/04/23 09:55:39;;;;;;;;;;;12.10;99.90;;;;;;5124824;28;19927;-67
2022/04/23 09:58:07;;;;;;;;;;;12.10;99.90;;;;;;5125266;28;19920;-67
2022/04/23 10:00:35;;;;;;;;;;;12.10;99.90;;;;;;5125021;28;19959;-67
2022/04/23 10:03:03;;;;;;;;;;;12.10;99.90;;;;;;5125163;28;19923;-67
2022/04/23 10:05:31;;;;;;;;;;;12.10;99.90;;;;;;5124682;28;19932;-67
2022/04/23 10:07:58;;;;;;;;;;;12.10;99.90;;;;;;5124804;28;19921;-68
2022/04/23 10:10:26;;;;;;;;;;;12.10;99.90;;;;;;5124859;28;19946;-68
2022/04/23 10:12:53;;;;;;;;;;;12.10;99.90;;;;;;5125190;28;19987;-67
2022/04/23 10:15:20;;;;;;;;;;;12.00;99.90;;;;;;5124610;28;19926;-67
2022/04/23 10:17:48;;;;;;;;;;;12.00;99.90;;;;;;5125134;28;19919;-67
2022/04/23 10:20:14;;;;;;;;;;;12.00;99.90;;;;;;5124691;28;19920;-67
2022/04/23 10:23:01;;;;;;;;;;;12.00;99.90;;;;;;5124599;28;19920;-68
2022/04/23 10:25:31;;;;;;;;;;;12.00;99.90;;;;;;5124543;28;19926;-68
2022/04/23 10:27:59;;;;;;;;;;;12.00;99.90;;;;;;5124601;28;19926;-68
2022/04/23 10:30:28;;;;;;;;;;;11.90;99.90;;;;;;5124471;28;19920;-67
2022/04/23 10:32:55;;;;;;;;;;;12.00;99.90;;;;;;5124593;28;20115;-67
2022/04/23 10:35:32;;;;;;;;;;;12.00;99.90;;;;;;5124368;28;19926;-68
2022/04/23 10:38:16;;;;;;;;;;;12.10;99.90;;;;;;5124613;28;19920;-68
2022/04/23 10:40:43;;;;;;;;;;;12.20;99.90;;;;;;5124271;28;19983;-67
2022/04/23 10:43:12;;;;;;;;;;;12.30;99.90;;;;;;5115842;28;19927;-67
2022/04/23 10:45:39;;;;;;;;;;;12.30;99.90;;;;;;5123326;28;19974;-67
2022/04/23 10:48:25;;;;;;;;;;;12.30;99.90;;;;;;5124575;28;19926;-67
2022/04/23 10:51:02;;;;;;;;;;;12.20;99.90;;;;;;5124201;28;19919;-67
2022/04/23 10:53:48;;;;;;;;;;;12.10;99.90;;;;;;5124138;28;20130;-68
2022/04/23 10:56:16;;;;;;;;;;;12.10;99.90;;;;;;5124004;28;19920;-67
2022/04/23 10:58:42;;;;;;;;;;;12.00;99.90;;;;;;5124288;28;19939;-67
2022/04/23 11:01:20;;;;;;;;;;;12.00;99.90;;;;;;5124111;28;20115;-67
2022/04/23 11:03:50;;;;;;;;;;;11.90;99.90;;;;;;5124023;28;19957;-67
2022/04/23 11:12:18;;;;;;;;;;;11.80;99.90;;;;;;5123712;28;20040;-67
2022/04/23 11:14:46;;;;;;;;;;;11.80;99.90;;;;;;5123756;28;19972;-67
2022/04/23 11:17:13;;;;;;;;;;;11.80;99.90;;;;;;5123729;28;19992;-67
2022/04/23 11:19:39;;;;;;;;;;;11.80;99.90;;;;;;5123956;28;19920;-67
2022/04/23 11:22:06;;;;;;;;;;;11.70;99.90;;;;;;5123868;28;19957;-67
2022/04/23 11:24:34;;;;;;;;;;;11.70;99.90;;;;;;5124010;28;19984;-68
2022/04/23 11:27:01;;;;;;;;;;;11.70;99.90;;;;;;5123383;28;20236;-67
2022/04/23 11:29:29;;;;;;;;;;;11.70;99.90;;;;;;5123909;28;19926;-68
2022/04/23 11:31:56;;;;;;;;;;;11.70;99.90;;;;;;5123483;28;19926;-68
2022/04/23 11:34:23;;;;;;;;;;;11.70;99.90;;;;;;5124155;28;19947;-67
2022/04/23 11:36:50;;;;;;;;;;;11.80;99.90;;;;;;5123747;28;20203;-68
2022/04/23 11:39:16;;;;;;;;;;;11.80;99.90;;;;;;5123636;28;20208;-67
2022/04/23 11:41:44;;;;;;;;;;;11.80;99.90;;;;;;5113911;28;19920;-68
2022/04/23 11:44:13;;;;;;;;;;;11.80;99.90;;;;;;5102826;28;19927;-68
2022/04/23 11:46:44;;;;;;;;;;;11.80;99.90;;;;;;5103281;28;19927;-68
2022/04/23 11:49:11;;;;;;;;;;;11.80;99.90;;;;;;5103143;28;19920;-68
2022/04/23 11:51:41;;;;;;;;;;;11.90;99.90;;;;;;5103105;28;20216;-68
2022/04/23 11:54:07;;;;;;;;;;;12.00;99.90;;;;;;5103000;28;19920;-68
2022/04/23 11:56:36;;;;;;;;;;;12.10;99.90;;;;;;5103383;28;19920;-68
2022/04/23 11:59:04;;;;;;;;;;;12.10;99.90;;;;;;5107020;28;19923;-68
2022/04/23 12:01:30;;;;;;;;;;;12.20;99.90;;;;;;5106840;28;19921;-68
2022/04/23 12:03:59;;;;;;;;;;;12.20;99.90;;;;;;5107336;28;19920;-68
2022/04/23 12:06:26;;;;;;;;;;;12.40;99.90;;;;;;5115036;28;19927;-68
2022/04/23 12:09:03;;;;;;;;;;;12.40;99.90;;;;;;5106772;28;19920;-68
2022/04/23 12:11:29;;;;;;;;;;;12.50;99.90;;;;;;5106678;28;19920;-67
2022/04/23 12:13:56;;;;;;;;;;;12.50;99.90;;;;;;5106693;28;20213;-68
2022/04/23 12:16:47;;;;;;;;;;;12.70;99.90;;;;;;5106596;28;19970;-68
2022/04/23 12:19:16;;;;;;;;;;;12.80;99.90;;;;;;5081580;28;19924;-68
2022/04/23 12:21:56;;;;;;;;;;;12.90;99.90;;;;;;5106555;28;19942;-68
2022/04/23 12:24:30;;;;;;;;;;;13.00;99.90;;;;;;5106870;28;19920;-68
2022/04/23 12:27:01;;;;;;;;;;;13.00;99.90;;;;;;5106583;28;19942;-68
2022/04/23 12:40:44;;;;;;;;;;;13.60;99.90;;;;;;5119220;28;19968;-68
2022/04/23 12:43:32;;;;;;;;;;;13.70;99.90;;;;;;5118001;28;19965;-68
2022/04/23 12:46:05;;;;;;;;;;;13.80;99.90;;;;;;5119972;28;19983;-68
2022/04/23 12:48:32;;;;;;;;;;;13.90;99.90;;;;;;5126820;28;19919;-68
2022/04/23 12:51:07;;;;;;;;;;;14.00;99.90;;;;;;5126735;28;19920;-68
2022/04/23 12:53:34;;;;;;;;;;;14.10;99.90;;;;;;5126779;28;19920;-68
2022/04/23 12:56:04;;;;;;;;;;;14.20;99.90;;;;;;5126076;28;19927;-68
2022/04/23 12:58:31;;;;;;;;;;;14.10;99.90;;;;;;5126222;28;19920;-67
2022/04/23 13:00:58;;;;;;;;;;;14.00;99.90;;;;;;5120080;28;19928;-68
2022/04/23 13:03:32;;;;;;;;;;;14.10;99.90;;;;;;5126184;28;19919;-68
2022/04/23 13:05:58;;;;;;;;;;;14.10;99.90;;;;;;5125863;28;19919;-68
2022/04/23 13:13:54;;;;;;;;;;;14.40;99.90;;;;;;5105616;28;19927;-70
2022/04/23 13:16:21;;;;;;;;;;;14.60;99.90;;;;;;5111848;28;20177;-70
2022/04/23 13:18:47;;;;;;;;;;;14.70;99.90;;;;;;5125934;28;19920;-70
2022/04/23 13:21:14;;;;;;;;;;;14.60;99.90;;;;;;5125943;27;20237;-71
2022/04/23 13:23:42;;;;;;;;;;;14.50;99.90;;;;;;5125770;28;19919;-70
2022/04/23 13:26:09;;;;;;;;;;;14.40;99.90;;;;;;5114974;28;19920;-71
2022/04/23 13:28:35;;;;;;;;;;;14.40;99.90;;;;;;5125770;28;19920;-71
2022/04/23 13:31:02;;;;;;;;;;;14.40;99.90;;;;;;5108664;28;19920;-71
2022/04/23 13:33:28;;;;;;;;;;;14.40;99.90;;;;;;5106914;28;19927;-71
2022/04/23 13:35:55;;;;;;;;;;;14.40;99.90;;;;;;5125687;28;19924;-70
2022/04/23 13:38:22;;;;;;;;;;;14.40;99.90;;;;;;5125370;28;19920;-71
2022/04/23 13:40:50;;;;;;;;;;;14.50;99.90;;;;;;5117662;28;19927;-71
2022/04/23 13:43:17;;;;;;;;;;;14.60;99.90;;;;;;5117822;28;19926;-71
2022/04/23 13:45:44;;;;;;;;;;;14.70;99.90;;;;;;5125140;28;20190;-71
2022/04/23 13:48:10;;;;;;;;;;;14.90;99.90;;;;;;5125715;28;20203;-71
2022/04/23 13:50:37;;;;;;;;;;;15.10;99.90;;;;;;5125738;27;19920;-70
2022/04/23 13:53:04;;;;;;;;;;;15.10;99.90;;;;;;5125523;28;19920;-71
2022/04/23 13:55:31;;;;;;;;;;;15.10;99.90;;;;;;5125083;28;19920;-70
2022/04/23 13:58:00;;;;;;;;;;;15.10;99.90;;;;;;5125086;28;19942;-71
2022/04/23 14:00:26;;;;;;;;;;;15.30;99.90;;;;;;5125625;28;19920;-71
2022/04/23 14:11:05;;;;;;;;;;;15.40;99.90;;;;;;5124851;28;19992;-72
2022/04/23 14:13:33;;;;;;;;;;;15.40;99.90;;;;;;5124876;28;19924;-71
2022/04/23 14:16:00;;;;;;;;;;;15.40;99.90;;;;;;5124447;28;19928;-71
2022/04/23 14:18:26;;;;;;;;;;;15.30;99.90;;;;;;5124670;28;19919;-71
2022/04/23 14:20:53;;;;;;;;;;;15.30;99.90;;;;;;5124154;28;19924;-71
2022/04/23 14:23:19;;;;;;;;;;;15.40;99.90;;;;;;5124780;28;19920;-71
2022/04/23 14:25:46;;;;;;;;;;;15.30;99.90;;;;;;5124366;28;20122;-71
2022/04/23 14:28:14;;;;;;;;;;;15.40;99.90;;;;;;5124636;28;19923;-72
2022/04/23 14:30:41;;;;;;;;;;;15.50;99.90;;;;;;5124451;28;20250;-71
2022/04/23 14:33:08;;;;;;;;;;;15.50;99.90;;;;;;5124512;28;19955;-70
2022/04/23 14:35:37;;;;;;;;;;;15.50;99.90;;;;;;5124344;28;20186;-72
2022/04/23 14:38:06;;;;;;;;;;;15.30;99.90;;;;;;5124522;28;19969;-72
2022/04/23 14:40:34;;;;;;;;;;;15.20;99.90;;;;;;5123945;28;19958;-70
2022/04/23 14:43:01;;;;;;;;;;;15.20;99.90;;;;;;5115752;28;19924;-71
2022/04/23 14:45:30;;;;;;;;;;;15.10;99.90;;;;;;5124082;28;20230;-71
2022/04/23 14:47:58;;;;;;;;;;;15.10;99.90;;;;;;5125230;28;19957;-71
2022/04/23 14:53:10;;;;;;;;;;;15.20;99.90;;;;;;5124133;28;19935;-70
2022/04/23 14:53:13;;;;;;;;;;;15.30;99.90;;;;;;5124180;28;19970;-72
2022/04/23 14:55:40;;;;;;;;;;;15.40;99.90;;;;;;5113026;28;20195;-72
2022/04/23 14:58:06;;;;;;;;;;;15.50;99.90;;;;;;5112004;28;20229;-71
2022/04/23 15:00:33;;;;;;;;;;;15.60;99.90;;;;;;5103718;28;19920;-71
2022/04/23 15:03:01;;;;;;;;;;;15.50;99.90;;;;;;5103789;28;19983;-71
2022/04/23 15:05:28;;;;;;;;;;;15.50;99.90;;;;;;5116755;28;19978;-71
2022/04/23 15:07:54;;;;;;;;;;;15.40;99.90;;;;;;5115132;28;19979;-71
2022/04/23 15:10:21;;;;;;;;;;;15.30;99.90;;;;;;5124182;28;20114;-71
2022/04/23 15:12:47;;;;;;;;;;;15.20;99.90;;;;;;5123682;28;19997;-71
2022/04/23 15:15:14;;;;;;;;;;;15.20;99.90;;;;;;5123761;28;20210;-71
2022/04/23 15:17:42;;;;;;;;;;;15.10;99.90;;;;;;5123767;28;19920;-71